sensor_id;sensor_type;location;lat;lon;timestamp;P1;durP1;ratioP1;P2;durP2;ratioP2
71973;SDS011;59840;52.122;5.404;2023-05-07T00:01:58;7.13;;;6.53;;
71973;SDS011;59840;52.122;5.404;2023-05-07T00:04:24;7.38;;;6.47;;
71973;SDS011;59840;52.122;5.404;2023-05-07T00:06:52;7.57;;;6.78;;
71973;SDS011;59840;52.122;5.404;2023-05-07T00:09:18;7.70;;;6.67;;
71973;SDS011;59840;52.122;5.404;2023-05-07T00:11:45;7.93;;;6.70;;
71973;SDS011;59840;52.122;5.404;2023-05-07T00:14:11;7.70;;;7.05;;
71973;SDS011;59840;52.122;5.404;2023-05-07T00:16:37;7.43;;;6.68;;
71973;SDS011;59840;52.122;5.404;2023-05-07T00:19:04;7.57;;;6.88;;
71973;SDS011;59840;52.122;5.404;2023-05-07T00:21:31;7.27;;;6.67;;
71973;SDS011;59840;52.122;5.404;2023-05-07T00:23:57;8.00;;;6.82;;
71973;SDS011;59840;52.122;5.404;2023-05-07T00:26:24;7.47;;;6.78;;
71973;SDS011;59840;52.122;5.404;2023-05-07T00:28:50;7.57;;;6.88;;
71973;SDS011;59840;52.122;5.404;2023-05-07T00:31:17;7.65;;;6.40;;
71973;SDS011;59840;52.122;5.404;2023-05-07T00:33:43;8.07;;;7.30;;
71973;SDS011;59840;52.122;5.404;2023-05-07T00:36:10;7.90;;;7.07;;
71973;SDS011;59840;52.122;5.404;2023-05-07T00:38:37;7.40;;;6.70;;
71973;SDS011;59840;52.122;5.404;2023-05-07T00:41:03;7.75;;;6.57;;
71973;SDS011;59840;52.122;5.404;2023-05-07T00:43:30;8.15;;;6.85;;
71973;SDS011;59840;52.122;5.404;2023-05-07T00:45:56;7.43;;;6.73;;
71973;SDS011;59840;52.122;5.404;2023-05-07T00:48:23;7.63;;;6.88;;
71973;SDS011;59840;52.122;5.404;2023-05-07T00:50:51;7.47;;;6.75;;
71973;SDS011;59840;52.122;5.404;2023-05-07T00:53:18;7.22;;;6.47;;
71973;SDS011;59840;52.122;5.404;2023-05-07T00:55:45;6.93;;;6.30;;
71973;SDS011;59840;52.122;5.404;2023-05-07T00:58:11;7.73;;;7.00;;
71973;SDS011;59840;52.122;5.404;2023-05-07T01:00:38;6.85;;;6.25;;
71973;SDS011;59840;52.122;5.404;2023-05-07T01:03:04;6.82;;;6.22;;
71973;SDS011;59840;52.122;5.404;2023-05-07T01:05:32;7.35;;;6.63;;
71973;SDS011;59840;52.122;5.404;2023-05-07T01:07:59;7.18;;;6.47;;
71973;SDS011;59840;52.122;5.404;2023-05-07T01:10:27;6.77;;;6.27;;
71973;SDS011;59840;52.122;5.404;2023-05-07T01:12:57;7.85;;;6.10;;
71973;SDS011;59840;52.122;5.404;2023-05-07T01:15:25;7.65;;;6.95;;
71973;SDS011;59840;52.122;5.404;2023-05-07T01:17:51;6.80;;;6.20;;
71973;SDS011;59840;52.122;5.404;2023-05-07T01:20:18;7.40;;;6.80;;
71973;SDS011;59840;52.122;5.404;2023-05-07T01:22:45;6.73;;;6.17;;
71973;SDS011;59840;52.122;5.404;2023-05-07T01:25:12;6.85;;;6.25;;
71973;SDS011;59840;52.122;5.404;2023-05-07T01:27:39;7.40;;;6.80;;
71973;SDS011;59840;52.122;5.404;2023-05-07T01:30:06;7.30;;;6.70;;
71973;SDS011;59840;52.122;5.404;2023-05-07T01:32:36;7.80;;;6.90;;
71973;SDS011;59840;52.122;5.404;2023-05-07T01:35:05;8.00;;;7.17;;
71973;SDS011;59840;52.122;5.404;2023-05-07T01:37:35;7.50;;;6.82;;
71973;SDS011;59840;52.122;5.404;2023-05-07T01:40:03;7.70;;;6.70;;
71973;SDS011;59840;52.122;5.404;2023-05-07T01:42:30;7.55;;;6.82;;
71973;SDS011;59840;52.122;5.404;2023-05-07T01:44:57;7.38;;;6.78;;
71973;SDS011;59840;52.122;5.404;2023-05-07T01:47:24;8.07;;;6.83;;
71973;SDS011;59840;52.122;5.404;2023-05-07T01:49:51;10.13;;;7.32;;
71973;SDS011;59840;52.122;5.404;2023-05-07T01:52:19;7.45;;;6.85;;
71973;SDS011;59840;52.122;5.404;2023-05-07T01:54:46;7.40;;;6.68;;
71973;SDS011;59840;52.122;5.404;2023-05-07T01:57:12;7.10;;;6.47;;
71973;SDS011;59840;52.122;5.404;2023-05-07T01:59:39;8.47;;;7.43;;
71973;SDS011;59840;52.122;5.404;2023-05-07T02:02:05;7.32;;;6.72;;
71973;SDS011;59840;52.122;5.404;2023-05-07T02:04:32;7.20;;;6.50;;
71973;SDS011;59840;52.122;5.404;2023-05-07T02:06:59;7.50;;;6.90;;
71973;SDS011;59840;52.122;5.404;2023-05-07T02:09:25;8.85;;;6.82;;
71973;SDS011;59840;52.122;5.404;2023-05-07T02:11:52;7.60;;;6.90;;
71973;SDS011;59840;52.122;5.404;2023-05-07T02:14:18;7.40;;;6.80;;
71973;SDS011;59840;52.122;5.404;2023-05-07T02:16:46;8.00;;;7.20;;
71973;SDS011;59840;52.122;5.404;2023-05-07T02:19:13;6.78;;;6.18;;
71973;SDS011;59840;52.122;5.404;2023-05-07T02:21:39;7.78;;;7.07;;
71973;SDS011;59840;52.122;5.404;2023-05-07T02:24:06;8.30;;;7.50;;
71973;SDS011;59840;52.122;5.404;2023-05-07T02:26:32;7.95;;;7.15;;
71973;SDS011;59840;52.122;5.404;2023-05-07T02:28:59;8.38;;;7.68;;
71973;SDS011;59840;52.122;5.404;2023-05-07T02:31:26;7.50;;;6.90;;
71973;SDS011;59840;52.122;5.404;2023-05-07T02:33:52;7.63;;;6.93;;
71973;SDS011;59840;52.122;5.404;2023-05-07T02:36:19;8.00;;;6.40;;
71973;SDS011;59840;52.122;5.404;2023-05-07T02:38:45;6.82;;;6.22;;
71973;SDS011;59840;52.122;5.404;2023-05-07T02:41:12;7.47;;;6.78;;
71973;SDS011;59840;52.122;5.404;2023-05-07T02:43:38;7.53;;;6.93;;
71973;SDS011;59840;52.122;5.404;2023-05-07T02:46:06;7.80;;;7.10;;
71973;SDS011;59840;52.122;5.404;2023-05-07T02:48:34;6.30;;;5.80;;
71973;SDS011;59840;52.122;5.404;2023-05-07T02:51:01;7.93;;;6.57;;
71973;SDS011;59840;52.122;5.404;2023-05-07T02:53:28;7.63;;;6.85;;
71973;SDS011;59840;52.122;5.404;2023-05-07T02:55:56;7.28;;;6.57;;
71973;SDS011;59840;52.122;5.404;2023-05-07T02:58:24;7.07;;;6.57;;
71973;SDS011;59840;52.122;5.404;2023-05-07T03:00:51;8.53;;;7.10;;
71973;SDS011;59840;52.122;5.404;2023-05-07T03:03:18;7.00;;;6.40;;
71973;SDS011;59840;52.122;5.404;2023-05-07T03:05:45;8.02;;;7.22;;
71973;SDS011;59840;52.122;5.404;2023-05-07T03:08:12;7.70;;;6.97;;
71973;SDS011;59840;52.122;5.404;2023-05-07T03:10:39;7.93;;;7.13;;
71973;SDS011;59840;52.122;5.404;2023-05-07T03:13:06;9.00;;;7.77;;
71973;SDS011;59840;52.122;5.404;2023-05-07T03:15:33;8.50;;;7.70;;
71973;SDS011;59840;52.122;5.404;2023-05-07T03:17:59;14.10;;;7.65;;
71973;SDS011;59840;52.122;5.404;2023-05-07T03:20:26;7.95;;;7.32;;
71973;SDS011;59840;52.122;5.404;2023-05-07T03:22:53;8.15;;;7.45;;
71973;SDS011;59840;52.122;5.404;2023-05-07T03:25:19;7.70;;;7.00;;
71973;SDS011;59840;52.122;5.404;2023-05-07T03:27:46;8.52;;;7.72;;
71973;SDS011;59840;52.122;5.404;2023-05-07T03:30:12;8.30;;;6.95;;
71973;SDS011;59840;52.122;5.404;2023-05-07T03:32:39;8.45;;;7.65;;
71973;SDS011;59840;52.122;5.404;2023-05-07T03:35:07;10.38;;;7.93;;
71973;SDS011;59840;52.122;5.404;2023-05-07T03:37:33;9.37;;;8.20;;
71973;SDS011;59840;52.122;5.404;2023-05-07T03:40:00;8.10;;;7.40;;
71973;SDS011;59840;52.122;5.404;2023-05-07T03:42:26;8.25;;;7.10;;
71973;SDS011;59840;52.122;5.404;2023-05-07T03:44:54;9.43;;;7.50;;
71973;SDS011;59840;52.122;5.404;2023-05-07T03:47:21;8.32;;;7.38;;
71973;SDS011;59840;52.122;5.404;2023-05-07T03:49:48;8.97;;;7.43;;
71973;SDS011;59840;52.122;5.404;2023-05-07T03:52:15;7.50;;;6.90;;
71973;SDS011;59840;52.122;5.404;2023-05-07T03:54:42;7.10;;;6.47;;
71973;SDS011;59840;52.122;5.404;2023-05-07T03:57:08;8.10;;;7.30;;
71973;SDS011;59840;52.122;5.404;2023-05-07T03:59:35;8.13;;;7.30;;
71973;SDS011;59840;52.122;5.404;2023-05-07T04:02:01;8.33;;;7.30;;
71973;SDS011;59840;52.122;5.404;2023-05-07T04:04:30;7.82;;;7.05;;
71973;SDS011;59840;52.122;5.404;2023-05-07T04:06:59;8.68;;;7.20;;
71973;SDS011;59840;52.122;5.404;2023-05-07T04:09:26;9.07;;;8.18;;
71973;SDS011;59840;52.122;5.404;2023-05-07T04:11:53;11.68;;;8.07;;
71973;SDS011;59840;52.122;5.404;2023-05-07T04:14:20;7.93;;;7.17;;
71973;SDS011;59840;52.122;5.404;2023-05-07T04:16:46;9.75;;;7.65;;
71973;SDS011;59840;52.122;5.404;2023-05-07T04:19:13;9.38;;;7.97;;
71973;SDS011;59840;52.122;5.404;2023-05-07T04:21:39;9.23;;;8.35;;
71973;SDS011;59840;52.122;5.404;2023-05-07T04:24:06;8.95;;;8.05;;
71973;SDS011;59840;52.122;5.404;2023-05-07T04:26:33;8.70;;;7.87;;
71973;SDS011;59840;52.122;5.404;2023-05-07T04:29:00;8.65;;;7.75;;
71973;SDS011;59840;52.122;5.404;2023-05-07T04:31:26;9.00;;;8.05;;
71973;SDS011;59840;52.122;5.404;2023-05-07T04:33:53;8.38;;;7.53;;
71973;SDS011;59840;52.122;5.404;2023-05-07T04:36:19;9.05;;;8.15;;
71973;SDS011;59840;52.122;5.404;2023-05-07T04:38:46;9.27;;;8.37;;
71973;SDS011;59840;52.122;5.404;2023-05-07T04:41:12;10.18;;;7.97;;
71973;SDS011;59840;52.122;5.404;2023-05-07T04:43:39;9.45;;;8.35;;
71973;SDS011;59840;52.122;5.404;2023-05-07T04:46:06;9.05;;;8.20;;
71973;SDS011;59840;52.122;5.404;2023-05-07T04:48:32;9.85;;;8.25;;
71973;SDS011;59840;52.122;5.404;2023-05-07T04:50:59;10.93;;;8.43;;
71973;SDS011;59840;52.122;5.404;2023-05-07T04:53:26;8.93;;;8.05;;
71973;SDS011;59840;52.122;5.404;2023-05-07T04:55:56;10.00;;;8.30;;
71973;SDS011;59840;52.122;5.404;2023-05-07T04:58:23;11.82;;;8.52;;
71973;SDS011;59840;52.122;5.404;2023-05-07T05:00:50;10.88;;;8.60;;
71973;SDS011;59840;52.122;5.404;2023-05-07T05:03:17;12.47;;;8.53;;
71973;SDS011;59840;52.122;5.404;2023-05-07T05:05:43;11.43;;;8.82;;
71973;SDS011;59840;52.122;5.404;2023-05-07T05:08:10;9.63;;;8.40;;
71973;SDS011;59840;52.122;5.404;2023-05-07T05:10:36;10.38;;;8.45;;
71973;SDS011;59840;52.122;5.404;2023-05-07T05:13:03;9.23;;;8.25;;
71973;SDS011;59840;52.122;5.404;2023-05-07T05:15:29;10.17;;;9.07;;
71973;SDS011;59840;52.122;5.404;2023-05-07T05:17:59;9.38;;;8.23;;
71973;SDS011;59840;52.122;5.404;2023-05-07T05:20:25;9.65;;;8.50;;
71973;SDS011;59840;52.122;5.404;2023-05-07T05:22:52;8.90;;;8.00;;
71973;SDS011;59840;52.122;5.404;2023-05-07T05:25:19;13.30;;;8.57;;
71973;SDS011;59840;52.122;5.404;2023-05-07T05:27:45;9.90;;;8.80;;
71973;SDS011;59840;52.122;5.404;2023-05-07T05:30:12;13.70;;;8.88;;
71973;SDS011;59840;52.122;5.404;2023-05-07T05:32:39;13.68;;;8.80;;
71973;SDS011;59840;52.122;5.404;2023-05-07T05:35:06;10.98;;;8.88;;
71973;SDS011;59840;52.122;5.404;2023-05-07T05:37:32;11.85;;;8.77;;
71973;SDS011;59840;52.122;5.404;2023-05-07T05:39:59;10.83;;;8.50;;
71973;SDS011;59840;52.122;5.404;2023-05-07T05:42:26;11.85;;;8.85;;
71973;SDS011;59840;52.122;5.404;2023-05-07T05:44:53;10.40;;;8.43;;
71973;SDS011;59840;52.122;5.404;2023-05-07T05:47:19;11.65;;;9.30;;
71973;SDS011;59840;52.122;5.404;2023-05-07T05:49:46;15.98;;;9.80;;
71973;SDS011;59840;52.122;5.404;2023-05-07T05:52:12;10.70;;;8.87;;
71973;SDS011;59840;52.122;5.404;2023-05-07T05:54:40;12.32;;;9.48;;
71973;SDS011;59840;52.122;5.404;2023-05-07T05:57:06;12.05;;;9.27;;
71973;SDS011;59840;52.122;5.404;2023-05-07T05:59:33;10.60;;;9.60;;
71973;SDS011;59840;52.122;5.404;2023-05-07T06:02:00;11.38;;;9.57;;
71973;SDS011;59840;52.122;5.404;2023-05-07T06:04:26;11.90;;;9.47;;
71973;SDS011;59840;52.122;5.404;2023-05-07T06:06:53;11.43;;;9.52;;
71973;SDS011;59840;52.122;5.404;2023-05-07T06:09:20;13.23;;;9.52;;
71973;SDS011;59840;52.122;5.404;2023-05-07T06:11:46;13.18;;;9.65;;
71973;SDS011;59840;52.122;5.404;2023-05-07T06:14:13;10.00;;;9.00;;
71973;SDS011;59840;52.122;5.404;2023-05-07T06:16:40;10.90;;;9.80;;
71973;SDS011;59840;52.122;5.404;2023-05-07T06:19:06;13.32;;;10.00;;
71973;SDS011;59840;52.122;5.404;2023-05-07T06:21:33;11.45;;;10.05;;
71973;SDS011;59840;52.122;5.404;2023-05-07T06:23:59;12.57;;;9.73;;
71973;SDS011;59840;52.122;5.404;2023-05-07T06:26:26;12.32;;;10.20;;
71973;SDS011;59840;52.122;5.404;2023-05-07T06:28:52;12.80;;;9.60;;
71973;SDS011;59840;52.122;5.404;2023-05-07T06:31:19;12.85;;;10.20;;
71973;SDS011;59840;52.122;5.404;2023-05-07T06:33:49;13.38;;;10.05;;
71973;SDS011;59840;52.122;5.404;2023-05-07T06:36:16;11.70;;;9.75;;
71973;SDS011;59840;52.122;5.404;2023-05-07T06:38:42;13.02;;;10.32;;
71973;SDS011;59840;52.122;5.404;2023-05-07T06:41:09;13.57;;;9.90;;
71973;SDS011;59840;52.122;5.404;2023-05-07T06:43:36;12.43;;;9.82;;
71973;SDS011;59840;52.122;5.404;2023-05-07T06:46:02;13.30;;;9.75;;
71973;SDS011;59840;52.122;5.404;2023-05-07T06:48:29;13.63;;;10.07;;
71973;SDS011;59840;52.122;5.404;2023-05-07T06:50:55;14.73;;;10.77;;
71973;SDS011;59840;52.122;5.404;2023-05-07T06:53:24;14.87;;;10.17;;
71973;SDS011;59840;52.122;5.404;2023-05-07T06:55:50;12.15;;;9.85;;
71973;SDS011;59840;52.122;5.404;2023-05-07T06:58:18;12.93;;;10.63;;
71973;SDS011;59840;52.122;5.404;2023-05-07T07:00:44;12.43;;;10.23;;
71973;SDS011;59840;52.122;5.404;2023-05-07T07:03:12;15.35;;;10.57;;
71973;SDS011;59840;52.122;5.404;2023-05-07T07:05:40;13.57;;;10.50;;
71973;SDS011;59840;52.122;5.404;2023-05-07T07:08:07;14.27;;;11.30;;
71973;SDS011;59840;52.122;5.404;2023-05-07T07:10:39;13.02;;;10.15;;
71973;SDS011;59840;52.122;5.404;2023-05-07T07:13:07;12.45;;;9.90;;
71973;SDS011;59840;52.122;5.404;2023-05-07T07:15:34;15.80;;;11.35;;
71973;SDS011;59840;52.122;5.404;2023-05-07T07:18:00;13.50;;;10.67;;
71973;SDS011;59840;52.122;5.404;2023-05-07T07:20:28;12.65;;;10.45;;
71973;SDS011;59840;52.122;5.404;2023-05-07T07:22:55;12.95;;;9.93;;
71973;SDS011;59840;52.122;5.404;2023-05-07T07:25:22;12.75;;;10.82;;
71973;SDS011;59840;52.122;5.404;2023-05-07T07:27:49;12.32;;;10.32;;
71973;SDS011;59840;52.122;5.404;2023-05-07T07:30:16;12.10;;;10.40;;
71973;SDS011;59840;52.122;5.404;2023-05-07T07:32:42;14.10;;;11.32;;
71973;SDS011;59840;52.122;5.404;2023-05-07T07:35:10;14.15;;;10.45;;
71973;SDS011;59840;52.122;5.404;2023-05-07T07:37:36;14.43;;;10.80;;
71973;SDS011;59840;52.122;5.404;2023-05-07T07:40:03;14.05;;;10.93;;
71973;SDS011;59840;52.122;5.404;2023-05-07T07:42:30;12.57;;;11.00;;
71973;SDS011;59840;52.122;5.404;2023-05-07T07:44:57;11.48;;;9.98;;
71973;SDS011;59840;52.122;5.404;2023-05-07T07:47:23;11.60;;;10.30;;
71973;SDS011;59840;52.122;5.404;2023-05-07T07:49:50;11.50;;;9.93;;
71973;SDS011;59840;52.122;5.404;2023-05-07T07:52:16;12.82;;;10.25;;
71973;SDS011;59840;52.122;5.404;2023-05-07T07:54:44;12.60;;;10.40;;
71973;SDS011;59840;52.122;5.404;2023-05-07T07:57:11;11.80;;;10.18;;
71973;SDS011;59840;52.122;5.404;2023-05-07T07:59:37;13.82;;;10.82;;
71973;SDS011;59840;52.122;5.404;2023-05-07T08:02:04;15.75;;;10.40;;
71973;SDS011;59840;52.122;5.404;2023-05-07T08:04:31;12.75;;;10.15;;
71973;SDS011;59840;52.122;5.404;2023-05-07T08:06:59;10.97;;;9.77;;
71973;SDS011;59840;52.122;5.404;2023-05-07T08:09:26;13.70;;;10.55;;
71973;SDS011;59840;52.122;5.404;2023-05-07T08:11:52;13.00;;;10.32;;
71973;SDS011;59840;52.122;5.404;2023-05-07T08:14:19;11.82;;;10.50;;
71973;SDS011;59840;52.122;5.404;2023-05-07T08:16:46;12.77;;;10.73;;
71973;SDS011;59840;52.122;5.404;2023-05-07T08:19:13;13.67;;;10.13;;
71973;SDS011;59840;52.122;5.404;2023-05-07T08:21:39;13.82;;;11.23;;
71973;SDS011;59840;52.122;5.404;2023-05-07T08:24:06;12.93;;;11.10;;
71973;SDS011;59840;52.122;5.404;2023-05-07T08:26:32;12.43;;;11.05;;
71973;SDS011;59840;52.122;5.404;2023-05-07T08:28:59;12.25;;;11.05;;
71973;SDS011;59840;52.122;5.404;2023-05-07T08:31:26;14.07;;;11.07;;
71973;SDS011;59840;52.122;5.404;2023-05-07T08:33:52;14.75;;;11.63;;
71973;SDS011;59840;52.122;5.404;2023-05-07T08:36:19;16.75;;;11.90;;
71973;SDS011;59840;52.122;5.404;2023-05-07T08:38:45;12.80;;;11.45;;
71973;SDS011;59840;52.122;5.404;2023-05-07T08:41:12;14.25;;;11.23;;
71973;SDS011;59840;52.122;5.404;2023-05-07T08:43:38;13.07;;;11.67;;
71973;SDS011;59840;52.122;5.404;2023-05-07T08:46:08;15.70;;;11.32;;
71973;SDS011;59840;52.122;5.404;2023-05-07T08:48:37;14.88;;;12.10;;
71973;SDS011;59840;52.122;5.404;2023-05-07T08:51:04;17.90;;;12.30;;
71973;SDS011;59840;52.122;5.404;2023-05-07T08:53:31;13.88;;;11.90;;
71973;SDS011;59840;52.122;5.404;2023-05-07T08:56:01;13.13;;;11.60;;
71973;SDS011;59840;52.122;5.404;2023-05-07T08:58:28;14.35;;;11.93;;
71973;SDS011;59840;52.122;5.404;2023-05-07T09:00:55;13.77;;;11.60;;
71973;SDS011;59840;52.122;5.404;2023-05-07T09:03:22;17.52;;;11.90;;
71973;SDS011;59840;52.122;5.404;2023-05-07T09:05:48;15.57;;;12.30;;
71973;SDS011;59840;52.122;5.404;2023-05-07T09:08:15;15.30;;;11.60;;
71973;SDS011;59840;52.122;5.404;2023-05-07T09:10:42;13.82;;;11.27;;
71973;SDS011;59840;52.122;5.404;2023-05-07T09:13:10;17.45;;;11.55;;
71973;SDS011;59840;52.122;5.404;2023-05-07T09:15:39;15.57;;;12.02;;
71973;SDS011;59840;52.122;5.404;2023-05-07T09:18:06;13.60;;;11.38;;
71973;SDS011;59840;52.122;5.404;2023-05-07T09:20:32;14.37;;;11.67;;
71973;SDS011;59840;52.122;5.404;2023-05-07T09:22:59;11.52;;;10.40;;
71973;SDS011;59840;52.122;5.404;2023-05-07T09:25:29;10.30;;;9.20;;
71973;SDS011;59840;52.122;5.404;2023-05-07T09:27:57;13.60;;;9.82;;
71973;SDS011;59840;52.122;5.404;2023-05-07T09:30:27;12.70;;;10.55;;
71973;SDS011;59840;52.122;5.404;2023-05-07T09:32:55;11.97;;;10.23;;
71973;SDS011;59840;52.122;5.404;2023-05-07T09:35:22;12.93;;;10.02;;
71973;SDS011;59840;52.122;5.404;2023-05-07T09:37:56;13.45;;;10.07;;
71973;SDS011;59840;52.122;5.404;2023-05-07T09:40:29;14.50;;;10.65;;
71973;SDS011;59840;52.122;5.404;2023-05-07T09:43:07;13.57;;;9.88;;
71973;SDS011;59840;52.122;5.404;2023-05-07T09:45:36;11.43;;;10.00;;
71973;SDS011;59840;52.122;5.404;2023-05-07T09:48:02;11.52;;;9.80;;
71973;SDS011;59840;52.122;5.404;2023-05-07T09:50:42;13.18;;;10.52;;
71973;SDS011;59840;52.122;5.404;2023-05-07T09:53:15;11.35;;;9.90;;
71973;SDS011;59840;52.122;5.404;2023-05-07T09:55:43;15.75;;;10.27;;
71973;SDS011;59840;52.122;5.404;2023-05-07T09:58:11;13.00;;;10.20;;
71973;SDS011;59840;52.122;5.404;2023-05-07T10:00:39;12.77;;;10.93;;
71973;SDS011;59840;52.122;5.404;2023-05-07T10:03:07;14.13;;;11.27;;
71973;SDS011;59840;52.122;5.404;2023-05-07T10:05:38;13.20;;;11.40;;
71973;SDS011;59840;52.122;5.404;2023-05-07T10:08:06;14.30;;;11.25;;
71973;SDS011;59840;52.122;5.404;2023-05-07T10:10:34;14.37;;;10.93;;
71973;SDS011;59840;52.122;5.404;2023-05-07T10:13:01;14.50;;;11.73;;
71973;SDS011;59840;52.122;5.404;2023-05-07T10:15:32;14.85;;;12.20;;
71973;SDS011;59840;52.122;5.404;2023-05-07T10:17:58;15.63;;;11.60;;
71973;SDS011;59840;52.122;5.404;2023-05-07T10:20:26;13.65;;;12.07;;
71973;SDS011;59840;52.122;5.404;2023-05-07T10:22:53;13.10;;;11.23;;
71973;SDS011;59840;52.122;5.404;2023-05-07T10:25:31;14.52;;;11.25;;
71973;SDS011;59840;52.122;5.404;2023-05-07T10:28:06;13.23;;;11.82;;
71973;SDS011;59840;52.122;5.404;2023-05-07T10:30:44;13.68;;;11.30;;
71973;SDS011;59840;52.122;5.404;2023-05-07T10:33:34;15.02;;;11.40;;
71973;SDS011;59840;52.122;5.404;2023-05-07T10:36:04;13.93;;;11.63;;
71973;SDS011;59840;52.122;5.404;2023-05-07T10:38:32;13.40;;;10.75;;
71973;SDS011;59840;52.122;5.404;2023-05-07T10:40:59;16.90;;;12.73;;
71973;SDS011;59840;52.122;5.404;2023-05-07T10:43:26;15.90;;;12.10;;
71973;SDS011;59840;52.122;5.404;2023-05-07T10:46:15;15.82;;;12.18;;
71973;SDS011;59840;52.122;5.404;2023-05-07T10:51:29;13.80;;;10.98;;
71973;SDS011;59840;52.122;5.404;2023-05-07T10:56:39;13.80;;;10.75;;
71973;SDS011;59840;52.122;5.404;2023-05-07T11:01:53;11.90;;;10.70;;
71973;SDS011;59840;52.122;5.404;2023-05-07T11:04:21;13.77;;;11.30;;
71973;SDS011;59840;52.122;5.404;2023-05-07T11:15:05;14.70;;;12.13;;
71973;SDS011;59840;52.122;5.404;2023-05-07T11:17:33;17.08;;;11.55;;
71973;SDS011;59840;52.122;5.404;2023-05-07T11:20:03;14.55;;;11.32;;
71973;SDS011;59840;52.122;5.404;2023-05-07T11:24:59;16.08;;;11.63;;
71973;SDS011;59840;52.122;5.404;2023-05-07T11:27:26;13.67;;;11.83;;
71973;SDS011;59840;52.122;5.404;2023-05-07T11:29:52;15.38;;;12.35;;
71973;SDS011;59840;52.122;5.404;2023-05-07T11:32:23;15.70;;;11.38;;
71973;SDS011;59840;52.122;5.404;2023-05-07T11:34:57;14.60;;;11.73;;
71973;SDS011;59840;52.122;5.404;2023-05-07T11:37:26;15.70;;;11.82;;
71973;SDS011;59840;52.122;5.404;2023-05-07T11:40:05;13.03;;;11.63;;
71973;SDS011;59840;52.122;5.404;2023-05-07T11:42:34;16.52;;;12.05;;
71973;SDS011;59840;52.122;5.404;2023-05-07T11:45:04;14.32;;;11.60;;
71973;SDS011;59840;52.122;5.404;2023-05-07T11:47:32;13.27;;;11.73;;
71973;SDS011;59840;52.122;5.404;2023-05-07T11:50:03;14.68;;;12.40;;
71973;SDS011;59840;52.122;5.404;2023-05-07T11:52:32;13.90;;;12.40;;
71973;SDS011;59840;52.122;5.404;2023-05-07T11:54:59;14.68;;;12.45;;
71973;SDS011;59840;52.122;5.404;2023-05-07T11:57:27;13.50;;;12.10;;
71973;SDS011;59840;52.122;5.404;2023-05-07T12:02:21;13.77;;;12.32;;
71973;SDS011;59840;52.122;5.404;2023-05-07T12:04:48;20.53;;;12.80;;
71973;SDS011;59840;52.122;5.404;2023-05-07T12:07:15;15.55;;;11.85;;
71973;SDS011;59840;52.122;5.404;2023-05-07T12:09:43;16.27;;;12.77;;
71973;SDS011;59840;52.122;5.404;2023-05-07T12:12:10;16.90;;;13.20;;
71973;SDS011;59840;52.122;5.404;2023-05-07T12:14:38;16.38;;;13.65;;
71973;SDS011;59840;52.122;5.404;2023-05-07T12:17:09;16.27;;;13.40;;
71973;SDS011;59840;52.122;5.404;2023-05-07T12:19:38;14.60;;;12.98;;
71973;SDS011;59840;52.122;5.404;2023-05-07T12:22:07;16.42;;;12.40;;
71973;SDS011;59840;52.122;5.404;2023-05-07T12:27:14;15.85;;;12.10;;
71973;SDS011;59840;52.122;5.404;2023-05-07T12:29:48;14.03;;;12.53;;
71973;SDS011;59840;52.122;5.404;2023-05-07T12:32:17;17.52;;;13.05;;
71973;SDS011;59840;52.122;5.404;2023-05-07T12:34:44;14.55;;;12.45;;
71973;SDS011;59840;52.122;5.404;2023-05-07T12:37:12;14.40;;;12.90;;
71973;SDS011;59840;52.122;5.404;2023-05-07T12:39:48;14.35;;;12.88;;
71973;SDS011;59840;52.122;5.404;2023-05-07T12:42:16;14.23;;;12.37;;
71973;SDS011;59840;52.122;5.404;2023-05-07T12:44:46;16.27;;;12.60;;
71973;SDS011;59840;52.122;5.404;2023-05-07T12:47:13;13.07;;;11.63;;
71973;SDS011;59840;52.122;5.404;2023-05-07T12:49:43;13.75;;;11.20;;
71973;SDS011;59840;52.122;5.404;2023-05-07T12:52:14;13.93;;;10.10;;
71973;SDS011;59840;52.122;5.404;2023-05-07T12:54:41;12.37;;;10.23;;
71973;SDS011;59840;52.122;5.404;2023-05-07T12:57:09;10.60;;;9.40;;
71973;SDS011;59840;52.122;5.404;2023-05-07T12:59:37;9.93;;;8.60;;
71973;SDS011;59840;52.122;5.404;2023-05-07T13:02:06;7.85;;;7.13;;
71973;SDS011;59840;52.122;5.404;2023-05-07T13:04:33;9.55;;;7.45;;
71973;SDS011;59840;52.122;5.404;2023-05-07T13:07:00;6.57;;;5.90;;
71973;SDS011;59840;52.122;5.404;2023-05-07T13:09:27;9.35;;;7.45;;
71973;SDS011;59840;52.122;5.404;2023-05-07T13:11:57;9.70;;;7.88;;
71973;SDS011;59840;52.122;5.404;2023-05-07T13:14:27;8.85;;;7.30;;
71973;SDS011;59840;52.122;5.404;2023-05-07T13:16:54;9.10;;;8.07;;
71973;SDS011;59840;52.122;5.404;2023-05-07T13:19:21;10.70;;;7.80;;
71973;SDS011;59840;52.122;5.404;2023-05-07T13:21:47;12.23;;;9.98;;
71973;SDS011;59840;52.122;5.404;2023-05-07T13:24:15;9.40;;;8.48;;
71973;SDS011;59840;52.122;5.404;2023-05-07T13:26:42;10.02;;;7.85;;
71973;SDS011;59840;52.122;5.404;2023-05-07T13:29:11;9.52;;;8.13;;
71973;SDS011;59840;52.122;5.404;2023-05-07T13:32:03;9.03;;;7.97;;
71973;SDS011;59840;52.122;5.404;2023-05-07T13:34:30;9.43;;;6.97;;
71973;SDS011;59840;52.122;5.404;2023-05-07T13:37:10;8.50;;;7.40;;
71973;SDS011;59840;52.122;5.404;2023-05-07T13:39:41;9.50;;;8.23;;
71973;SDS011;59840;52.122;5.404;2023-05-07T13:42:18;9.18;;;7.85;;
71973;SDS011;59840;52.122;5.404;2023-05-07T13:44:52;8.70;;;6.77;;
71973;SDS011;59840;52.122;5.404;2023-05-07T13:47:27;8.05;;;6.47;;
71973;SDS011;59840;52.122;5.404;2023-05-07T13:50:05;10.68;;;7.55;;
71973;SDS011;59840;52.122;5.404;2023-05-07T13:52:42;9.38;;;8.38;;
71973;SDS011;59840;52.122;5.404;2023-05-07T13:55:12;14.77;;;9.75;;
71973;SDS011;59840;52.122;5.404;2023-05-07T13:57:41;17.17;;;9.67;;
71973;SDS011;59840;52.122;5.404;2023-05-07T14:00:08;11.18;;;9.48;;
71973;SDS011;59840;52.122;5.404;2023-05-07T14:02:35;13.60;;;10.43;;
71973;SDS011;59840;52.122;5.404;2023-05-07T14:05:02;11.90;;;10.48;;
71973;SDS011;59840;52.122;5.404;2023-05-07T14:07:29;13.57;;;10.90;;
71973;SDS011;59840;52.122;5.404;2023-05-07T14:09:56;14.23;;;10.53;;
71973;SDS011;59840;52.122;5.404;2023-05-07T14:12:23;13.20;;;10.98;;
71973;SDS011;59840;52.122;5.404;2023-05-07T14:14:50;13.07;;;10.38;;
71973;SDS011;59840;52.122;5.404;2023-05-07T14:17:17;11.27;;;10.07;;
71973;SDS011;59840;52.122;5.404;2023-05-07T14:19:44;11.98;;;9.63;;
71973;SDS011;59840;52.122;5.404;2023-05-07T14:22:12;12.47;;;10.07;;
71973;SDS011;59840;52.122;5.404;2023-05-07T14:24:40;16.00;;;10.68;;
71973;SDS011;59840;52.122;5.404;2023-05-07T14:27:07;12.27;;;10.30;;
71973;SDS011;59840;52.122;5.404;2023-05-07T14:29:33;12.63;;;10.55;;
71973;SDS011;59840;52.122;5.404;2023-05-07T14:32:02;13.60;;;10.88;;
71973;SDS011;59840;52.122;5.404;2023-05-07T14:34:29;11.67;;;10.03;;
71973;SDS011;59840;52.122;5.404;2023-05-07T14:36:56;10.98;;;9.70;;
71973;SDS011;59840;52.122;5.404;2023-05-07T14:39:23;9.93;;;8.63;;
71973;SDS011;59840;52.122;5.404;2023-05-07T14:41:49;11.05;;;9.70;;
71973;SDS011;59840;52.122;5.404;2023-05-07T14:44:16;11.73;;;10.25;;
71973;SDS011;59840;52.122;5.404;2023-05-07T14:46:42;12.73;;;10.60;;
71973;SDS011;59840;52.122;5.404;2023-05-07T14:49:09;11.35;;;9.48;;
71973;SDS011;59840;52.122;5.404;2023-05-07T14:51:43;10.35;;;9.20;;
71973;SDS011;59840;52.122;5.404;2023-05-07T14:54:11;12.05;;;8.98;;
71973;SDS011;59840;52.122;5.404;2023-05-07T14:56:41;10.40;;;9.35;;
71973;SDS011;59840;52.122;5.404;2023-05-07T14:59:08;11.57;;;8.47;;
71973;SDS011;59840;52.122;5.404;2023-05-07T15:01:35;10.38;;;8.43;;